INFORMACIÓN METAR y TAF
METAR FOR LEAL
ADDS - METARS form results

(2020 UTC 03 June 2020)
Data provider http://aviationweather.gov/metar/data/
 
METAR text: LEAL 032000Z 15004KT 110V180 CAVOK 23/18 Q1004 NOSIG
Conditions at: LEAL (ALICANTE/EL ALTE, ES) observed 2000 UTC 03 June 2020
Temperature: 23.0°C (73°F)
Dewpoint: 18.0°C (64°F) [RH = 73%]
Pressure (altimeter): 29.65 inches Hg (1004.0 mb)
Winds: from the SSE (150 degrees) at 5 MPH (4 knots; 2.1 m/s)
Visibility: 6 or more miles (10+ km)
Ceiling: ceiling and visibility are OK
Clouds: unknown
Weather: no significant weather observed at this time

METAR text: LEAL 031930Z VRB02KT CAVOK 24/19 Q1004 NOSIG
Conditions at: LEAL (ALICANTE/EL ALTE, ES) observed 1930 UTC 03 June 2020
Temperature: 24.0°C (75°F)
Dewpoint: 19.0°C (66°F) [RH = 74%]
Pressure (altimeter): 29.65 inches Hg (1004.0 mb)
Winds: variable direction winds at 2 MPH (2 knots; 1.0 m/s)
Visibility: 6 or more miles (10+ km)
Ceiling: ceiling and visibility are OK
Clouds: unknown
Weather: no significant weather observed at this time

Forecast for: AMD
Text: TAF AMD LEAL 031828Z 0318/0418 19007KT 9999 FEW040 TX32/0412Z TN20/0406Z
Forecast period: 1800 UTC 03 June 2020 to 0000 UTC 04 June 2020
Forecast type: FROM: standard forecast or significant change
Winds: from the S (190 degrees) at 8 MPH (7 knots; 3.6 m/s)
Visibility: 6 or more miles 10+ km)
Ceiling: at least 12,000 feet AGL
Clouds: few clouds at 4000 feet AGL
Weather: no significant weather forecast for this period
Text: BECMG 0400/0402 28010KT
Forecast period: 0000 to 1800 UTC 04 June 2020
Forecast type: BECOMING: Conditions expected to become as follows by 0200 UTC 04 June 2020
Winds: from the W (280 degrees) at 12 MPH (10 knots; 5.1 m/s)
Visibility: 6 or more miles 10+ km)
Ceiling: at least 12,000 feet AGL
Clouds: few clouds at 4000 feet AGL
Weather: no significant weather forecast for this period
Text: PROB40
Forecast period: 0800 to 1600 UTC 04 June 2020
Forecast type: TEMPORARY: The following changes expected for less than half the time period
Winds: from the W (280 degrees) at 23 MPH (20 knots; 10.3 m/s)
gusting to 40 MPH (35 knots; 18.0 m/s)
Visibility: 2.49 miles (4.01 km)
Ceiling: 4000 feet AGL
Clouds: scattered clouds at 3000 feet AGL
broken clouds at 4000 feet AGL
Weather: TSRA  (rain associated with thunderstorm(s))

MAPA DE AEROPUERTO

INFORMACIÓN DE PISTA
Pista 10 Longitud 9842 ft Ancho 148 ft
Elevación 142 ft Umbral desplazado 0 ft Rumbo de pista 100
Pista 28 Longitud 9842 ft Ancho 148 ft
Elevación 44 ft Umbral desplazado 0 ft Rumbo de pista 280

FRECUANCIAS DEL AEROPUERTO
Tipo APP Nombre APP Frecuencia 118.8 MHZ
Tipo ATIS Nombre ATIS Frecuencia 113.8 MHZ
Tipo GND Nombre GND Frecuencia 121.7 MHZ
Tipo TWR Nombre TWR Frecuencia 118.15 MHZ

RADIO AYUDAS DEL AEROPUERTO
Tipo VOR-DME Nombre Alicante Frecuencia 113800 KHZ
Tipo VOR-DME Nombre Alicante Frecuencia 114650 KHZ